createdAt,value
2019-03-26T00:01:06.440Z,102080.98
2019-03-26T00:03:36.867Z,102074.92
2019-03-26T00:06:08.709Z,102074.92
2019-03-26T00:08:39.090Z,102091.11
2019-03-26T00:11:10.608Z,102091.11
2019-03-26T00:13:41.095Z,102091.83
2019-03-26T00:16:11.560Z,102090.20
2019-03-26T00:18:42.114Z,102090.67
2019-03-26T00:21:12.552Z,102092.06
2019-03-26T00:23:42.920Z,102093.85
2019-03-26T00:26:13.328Z,102097.50
2019-03-26T00:28:43.729Z,102098.95
2019-03-26T00:31:14.216Z,102096.15
2019-03-26T00:33:44.587Z,102095.75
2019-03-26T00:36:14.982Z,102095.11
2019-03-26T00:38:45.816Z,102096.94
2019-03-26T00:41:16.735Z,102099.77
2019-03-26T00:43:48.265Z,102105.95
2019-03-26T00:46:18.945Z,102105.95
2019-03-26T00:48:49.494Z,102098.86
2019-03-26T00:51:19.971Z,102098.94
2019-03-26T00:53:50.341Z,102097.62
2019-03-26T00:56:20.722Z,102100.38
2019-03-26T00:58:51.073Z,102101.46
2019-03-26T01:01:21.392Z,102107.08
2019-03-26T01:03:54.832Z,102107.08
2019-03-26T01:06:24.317Z,102107.55
2019-03-26T01:08:54.992Z,102118.53
2019-03-26T01:11:25.434Z,102118.53
2019-03-26T01:13:55.908Z,102109.93
2019-03-26T01:16:27.018Z,102116.34
2019-03-26T01:18:57.695Z,102113.71
2019-03-26T01:21:28.195Z,102117.45
2019-03-26T01:23:58.607Z,102117.45
2019-03-26T01:26:28.943Z,102120.43
2019-03-26T01:28:59.355Z,102133.83
2019-03-26T01:31:30.034Z,102132.58
2019-03-26T01:34:01.445Z,102142.30
2019-03-26T01:36:31.922Z,102140.00
2019-03-26T01:39:02.720Z,102139.29
2019-03-26T01:41:34.204Z,102144.52
2019-03-26T01:44:04.762Z,102144.73
2019-03-26T01:46:35.228Z,102133.19
2019-03-26T01:49:06.609Z,102134.23
2019-03-26T01:51:37.031Z,102129.30
2019-03-26T01:54:07.448Z,102133.25
2019-03-26T01:56:38.276Z,102133.25
2019-03-26T01:59:08.667Z,102132.64
2019-03-26T02:01:39.125Z,102127.14
2019-03-26T02:04:09.630Z,102134.87
2019-03-26T02:06:40.158Z,102136.45
2019-03-26T02:09:10.943Z,102127.65
2019-03-26T02:11:41.447Z,102131.73
2019-03-26T02:14:11.857Z,102131.73
2019-03-26T02:16:42.601Z,102141.01
2019-03-26T02:19:13.035Z,102136.52
2019-03-26T02:21:44.154Z,102137.56
2019-03-26T02:24:14.510Z,102134.83
2019-03-26T02:26:44.912Z,102136.59
2019-03-26T02:29:15.309Z,102135.20
2019-03-26T02:31:46.100Z,102142.42
2019-03-26T02:34:16.630Z,102147.12
2019-03-26T02:36:46.991Z,102147.96
2019-03-26T02:39:17.527Z,102136.32
2019-03-26T02:41:48.138Z,102146.04
2019-03-26T02:44:18.919Z,102143.61
2019-03-26T02:46:49.253Z,102136.45
2019-03-26T02:49:19.571Z,102139.66
2019-03-26T02:51:49.862Z,102138.34
2019-03-26T02:54:20.230Z,102140.13
2019-03-26T02:56:50.691Z,102139.09
2019-03-26T02:59:22.145Z,102137.03
2019-03-26T03:01:53.601Z,102137.17
2019-03-26T03:04:24.060Z,102136.05
2019-03-26T03:06:54.373Z,102136.59
2019-03-26T03:09:24.729Z,102132.84
2019-03-26T03:11:55.115Z,102132.17
2019-03-26T03:14:25.502Z,102130.21
2019-03-26T03:16:55.917Z,102123.77
2019-03-26T03:19:26.344Z,102121.61
2019-03-26T03:21:56.626Z,102121.61
2019-03-26T03:24:27.042Z,102120.09
2019-03-26T03:26:57.626Z,102128.25
2019-03-26T03:29:28.067Z,102123.91
2019-03-26T03:31:58.766Z,102123.91
2019-03-26T03:34:29.050Z,102126.60
2019-03-26T03:36:59.403Z,102134.43
2019-03-26T03:39:29.715Z,102129.94
2019-03-26T03:42:00.403Z,102136.25
2019-03-26T03:44:30.756Z,102140.00
2019-03-26T03:47:02.923Z,102136.25
2019-03-26T03:49:39.087Z,102138.69
2019-03-26T03:52:11.709Z,102142.83
2019-03-26T03:54:44.578Z,102141.45
2019-03-26T03:57:17.801Z,102138.34
2019-03-26T03:59:48.843Z,102138.34
2019-03-26T04:02:19.240Z,102142.42
2019-03-26T04:04:49.621Z,102142.42
2019-03-26T04:07:20.106Z,102137.70
2019-03-26T04:09:50.435Z,102137.70
2019-03-26T04:12:20.835Z,102132.13
2019-03-26T04:14:51.555Z,102136.45
2019-03-26T04:17:21.861Z,102136.45
2019-03-26T04:19:52.235Z,102149.27
2019-03-26T04:22:22.662Z,102134.94
2019-03-26T04:24:53.549Z,102133.75
2019-03-26T04:27:24.210Z,102141.01
2019-03-26T04:29:54.664Z,102142.50
2019-03-26T04:32:25.326Z,102142.50
2019-03-26T04:34:55.709Z,102140.94
2019-03-26T04:37:27.079Z,102139.15
2019-03-26T04:39:57.766Z,102142.77
2019-03-26T04:42:28.254Z,102140.20
2019-03-26T04:44:58.624Z,102126.80
2019-03-26T04:47:29.043Z,102140.20
2019-03-26T04:49:59.573Z,102141.20
2019-03-26T04:52:30.205Z,102141.52
2019-03-26T04:55:00.533Z,102141.52
2019-03-26T04:57:30.997Z,102141.17
2019-03-26T05:00:01.647Z,102128.83
2019-03-26T05:02:33.004Z,102128.83
2019-03-26T05:05:03.520Z,102135.75
2019-03-26T05:07:33.967Z,102133.05
2019-03-26T05:10:04.681Z,102133.05
2019-03-26T05:12:35.026Z,102132.50
2019-03-26T05:15:05.917Z,102136.45
2019-03-26T05:17:36.692Z,102128.69
2019-03-26T05:20:08.195Z,102137.00
2019-03-26T05:22:39.478Z,102138.11
2019-03-26T05:25:10.220Z,102137.00
2019-03-26T05:27:45.706Z,102137.57
2019-03-26T05:30:13.529Z,102139.09
2019-03-26T05:32:43.896Z,102140.77
2019-03-26T05:35:14.743Z,102131.13
2019-03-26T05:37:45.076Z,102133.05
2019-03-26T05:40:15.914Z,102122.72
2019-03-26T05:42:46.344Z,102122.72
2019-03-26T05:45:17.127Z,102119.95
2019-03-26T05:47:47.638Z,102122.65
2019-03-26T05:50:18.316Z,102120.15
2019-03-26T05:52:48.859Z,102122.85
2019-03-26T05:55:19.957Z,102120.73
2019-03-26T05:57:51.262Z,102116.27
2019-03-26T06:00:26.749Z,102111.84
2019-03-26T06:02:57.294Z,102111.84
2019-03-26T06:05:27.723Z,102106.72
2019-03-26T06:07:58.136Z,102118.39
2019-03-26T06:10:28.518Z,102118.39
2019-03-26T06:12:59.563Z,102119.62
2019-03-26T06:15:29.966Z,102123.94
2019-03-26T06:18:00.316Z,102125.80
2019-03-26T06:20:30.636Z,102119.16
2019-03-26T06:23:01.435Z,102115.95
2019-03-26T06:25:31.912Z,102117.05
2019-03-26T06:28:02.648Z,102124.92
2019-03-26T06:30:33.081Z,102127.05
2019-03-26T06:33:04.103Z,102127.69
2019-03-26T06:35:34.740Z,102134.20
2019-03-26T06:38:06.258Z,102129.13
2019-03-26T06:40:37.271Z,102128.70
2019-03-26T06:43:07.671Z,102129.95
2019-03-26T06:45:38.253Z,102129.95
2019-03-26T06:48:08.682Z,102128.63
2019-03-26T06:50:40.240Z,102151.61
2019-03-26T06:53:10.962Z,102151.61
2019-03-26T06:55:41.508Z,102137.56
2019-03-26T06:58:12.046Z,102150.58
2019-03-26T07:00:43.089Z,102147.23
2019-03-26T07:03:13.529Z,102149.05
2019-03-26T07:05:43.939Z,102149.53
2019-03-26T07:08:14.438Z,102149.45
2019-03-26T07:10:44.766Z,102153.12
2019-03-26T07:13:15.459Z,102152.84
2019-03-26T07:15:45.793Z,102154.09
2019-03-26T07:18:16.374Z,102154.00
2019-03-26T07:20:46.833Z,102160.74
2019-03-26T07:23:17.423Z,102159.86
2019-03-26T07:25:47.910Z,102159.77
2019-03-26T07:28:19.533Z,102167.39
2019-03-26T07:30:50.340Z,102157.21
2019-03-26T07:33:20.834Z,102151.39
2019-03-26T07:35:51.329Z,102163.27
2019-03-26T07:38:21.753Z,102157.61
2019-03-26T07:40:53.168Z,102147.07
2019-03-26T07:43:23.670Z,102152.50
2019-03-26T07:45:54.103Z,102161.59
2019-03-26T07:48:24.956Z,102162.41
2019-03-26T07:50:55.399Z,102153.66
2019-03-26T07:53:26.055Z,102175.17
2019-03-26T07:55:56.505Z,102171.22
2019-03-26T07:58:26.965Z,102175.77
2019-03-26T08:00:57.812Z,102167.66
2019-03-26T08:03:28.361Z,102171.53
2019-03-26T08:05:58.714Z,102172.45
2019-03-26T08:08:29.139Z,102155.33
2019-03-26T08:10:59.431Z,102170.09
2019-03-26T08:13:29.950Z,102160.25
2019-03-26T08:16:00.858Z,102167.33
2019-03-26T08:18:31.358Z,102155.59
2019-03-26T08:21:01.704Z,102164.63
2019-03-26T08:23:32.556Z,102170.91
2019-03-26T08:26:02.983Z,102164.18
2019-03-26T08:28:33.365Z,102152.48
2019-03-26T08:31:03.870Z,102150.00
2019-03-26T08:33:34.303Z,102150.89
2019-03-26T08:36:05.582Z,102147.41
2019-03-26T08:38:36.065Z,102159.45
2019-03-26T08:41:06.541Z,102152.36
2019-03-26T08:43:36.994Z,102161.02
2019-03-26T08:46:07.598Z,102161.92
2019-03-26T08:48:37.992Z,102165.31
2019-03-26T08:51:08.885Z,102163.15
2019-03-26T08:53:39.327Z,102160.86
2019-03-26T08:56:11.027Z,102161.45
2019-03-26T08:58:41.882Z,102163.21
2019-03-26T09:01:12.289Z,102146.69
2019-03-26T09:03:42.579Z,102142.41
2019-03-26T09:06:13.149Z,102154.17
2019-03-26T09:08:43.580Z,102155.45
2019-03-26T09:11:13.984Z,102150.75
2019-03-26T09:13:44.380Z,102150.24
2019-03-26T09:16:14.805Z,102135.80
2019-03-26T09:18:45.553Z,102122.00
2019-03-26T09:21:15.983Z,102125.25
2019-03-26T09:23:46.386Z,102110.56
2019-03-26T09:26:17.011Z,102105.73
2019-03-26T09:28:48.011Z,102097.75
2019-03-26T09:31:18.639Z,102094.62
2019-03-26T09:33:49.099Z,102105.28
2019-03-26T09:36:19.581Z,102070.04
2019-03-26T09:38:50.001Z,102099.05
2019-03-26T09:41:20.639Z,102091.84
2019-03-26T09:43:51.042Z,102101.51
2019-03-26T09:46:21.599Z,102086.48
2019-03-26T09:48:51.929Z,102083.61
2019-03-26T09:51:22.362Z,102075.75
2019-03-26T09:53:53.010Z,102075.13
2019-03-26T09:56:30.623Z,102072.05
2019-03-26T09:58:57.002Z,102076.86
2019-03-26T10:01:27.494Z,102083.64
2019-03-26T10:03:58.124Z,102086.23
2019-03-26T10:06:28.535Z,102079.00
2019-03-26T10:08:59.103Z,102085.70
2019-03-26T10:11:29.613Z,102092.60
2019-03-26T10:14:00.609Z,102079.62
2019-03-26T10:16:30.996Z,102083.85
2019-03-26T10:19:01.587Z,102082.86
2019-03-26T10:21:32.011Z,102085.70
2019-03-26T10:24:02.318Z,102079.91
2019-03-26T10:26:32.732Z,102080.80
2019-03-26T10:29:18.768Z,102084.32
2019-03-26T10:31:35.792Z,102089.36
2019-03-26T10:34:06.382Z,102093.68
2019-03-26T10:36:37.386Z,102087.11
2019-03-26T10:39:08.630Z,102099.31
2019-03-26T10:41:39.357Z,102094.58
2019-03-26T10:44:09.784Z,102094.19
2019-03-26T10:46:40.172Z,102084.79
2019-03-26T10:49:10.535Z,102087.80
2019-03-26T10:51:40.880Z,102089.85
2019-03-26T10:54:11.383Z,102086.08
2019-03-26T10:56:42.225Z,102084.22
2019-03-26T10:59:12.548Z,102091.81
2019-03-26T11:01:42.923Z,102083.19
2019-03-26T11:04:13.407Z,102079.25
2019-03-26T11:06:43.777Z,102080.31
2019-03-26T11:09:23.297Z,102083.00
2019-03-26T11:11:46.407Z,102076.49
2019-03-26T11:14:16.842Z,102075.67
2019-03-26T11:16:47.426Z,102081.98
2019-03-26T11:19:17.901Z,102093.88
2019-03-26T11:21:48.262Z,102096.55
2019-03-26T11:24:18.583Z,102094.70
2019-03-26T11:26:49.091Z,102088.77
2019-03-26T11:29:20.285Z,102086.98
2019-03-26T11:31:50.917Z,102078.56
2019-03-26T11:34:21.453Z,102066.05
2019-03-26T11:36:51.789Z,102070.91
2019-03-26T11:39:32.118Z,102069.13
2019-03-26T11:41:54.573Z,102068.44
2019-03-26T11:44:24.992Z,102071.83
2019-03-26T11:46:55.439Z,102069.53
2019-03-26T11:49:26.073Z,102079.76
2019-03-26T11:51:56.540Z,102080.36
2019-03-26T11:54:27.051Z,102072.46
2019-03-26T11:56:57.490Z,102063.41
2019-03-26T11:59:28.084Z,102061.48
2019-03-26T12:01:58.577Z,102058.09
2019-03-26T12:04:29.874Z,102051.63
2019-03-26T12:07:00.282Z,102051.61
2019-03-26T12:09:30.759Z,102051.23
2019-03-26T12:12:01.262Z,102049.41
2019-03-26T12:14:31.631Z,102043.30
2019-03-26T12:17:02.095Z,102054.28
2019-03-26T12:19:32.520Z,102047.47
2019-03-26T12:22:02.963Z,102051.78
2019-03-26T12:24:33.316Z,102046.91
2019-03-26T12:27:03.634Z,102053.23
2019-03-26T12:29:34.020Z,102047.66
2019-03-26T12:32:05.024Z,102062.59
2019-03-26T12:34:35.486Z,102062.05
2019-03-26T12:37:06.029Z,102057.02
2019-03-26T12:39:36.474Z,102062.22
2019-03-26T12:42:06.938Z,102064.91
2019-03-26T12:44:37.464Z,102065.75
2019-03-26T12:47:12.396Z,102064.67
2019-03-26T12:49:42.852Z,102067.58
2019-03-26T12:52:13.273Z,102054.61
2019-03-26T12:54:44.338Z,102072.04
2019-03-26T12:57:14.870Z,102069.14
2019-03-26T12:59:45.329Z,102059.43
2019-03-26T13:02:15.962Z,102055.14
2019-03-26T13:04:46.390Z,102055.20
2019-03-26T13:07:16.858Z,102064.55
2019-03-26T13:09:47.323Z,102045.86
2019-03-26T13:12:17.828Z,102059.81
2019-03-26T13:14:48.533Z,102052.23
2019-03-26T13:17:19.063Z,102061.37
2019-03-26T13:19:49.525Z,102068.34
2019-03-26T13:22:20.065Z,102064.91
2019-03-26T13:24:50.723Z,102072.58
2019-03-26T13:27:21.384Z,102079.20
2019-03-26T13:29:51.784Z,102086.33
2019-03-26T13:32:23.186Z,102071.80
2019-03-26T13:34:53.642Z,102067.14
2019-03-26T13:37:24.215Z,102084.52
2019-03-26T13:39:54.762Z,102087.98
2019-03-26T13:42:25.144Z,102093.24
2019-03-26T13:44:55.420Z,102082.67
2019-03-26T13:47:25.938Z,102089.55
2019-03-26T13:49:56.334Z,102102.45
2019-03-26T13:52:28.119Z,102093.80
2019-03-26T13:54:59.980Z,102091.13
2019-03-26T13:57:30.431Z,102095.11
2019-03-26T14:00:00.912Z,102093.42
2019-03-26T14:02:31.596Z,102096.88
2019-03-26T14:05:02.004Z,102097.86
2019-03-26T14:07:32.473Z,102102.50
2019-03-26T14:10:03.044Z,102111.25
2019-03-26T14:12:34.420Z,102112.51
2019-03-26T14:15:05.227Z,102102.48
2019-03-26T14:17:35.956Z,102101.05
2019-03-26T14:20:07.306Z,102093.56
2019-03-26T14:22:37.778Z,102100.06
2019-03-26T14:25:08.700Z,102092.04
2019-03-26T14:27:39.144Z,102099.47
2019-03-26T14:30:10.887Z,102108.81
2019-03-26T14:32:41.450Z,102111.09
2019-03-26T14:35:12.159Z,102104.35
2019-03-26T14:37:51.036Z,102108.06
2019-03-26T14:40:14.957Z,102108.32
2019-03-26T14:42:47.437Z,102100.24
2019-03-26T14:45:17.937Z,102107.84
2019-03-26T14:47:48.306Z,102110.16
2019-03-26T14:50:20.354Z,102113.70
2019-03-26T14:52:51.877Z,102105.32
2019-03-26T14:55:22.248Z,102108.59
2019-03-26T14:57:53.538Z,102097.87
2019-03-26T15:00:24.021Z,102105.77
2019-03-26T15:02:54.830Z,102101.33
2019-03-26T15:05:25.309Z,102101.02
2019-03-26T15:07:56.564Z,102115.37
2019-03-26T15:10:28.209Z,102113.55
2019-03-26T15:12:59.053Z,102112.08
2019-03-26T15:15:30.706Z,102108.48
2019-03-26T15:18:01.243Z,102111.94
2019-03-26T15:20:31.951Z,102129.35
2019-03-26T15:23:02.740Z,102117.33
2019-03-26T15:25:33.161Z,102128.19
2019-03-26T15:28:03.595Z,102143.08
2019-03-26T15:30:34.262Z,102122.97
2019-03-26T15:33:05.599Z,102142.84
2019-03-26T15:35:36.165Z,102138.87
2019-03-26T15:38:06.859Z,102138.71
2019-03-26T15:40:37.259Z,102137.98
2019-03-26T15:43:09.701Z,102143.16
2019-03-26T15:45:41.838Z,102153.21
2019-03-26T15:48:15.363Z,102140.80
2019-03-26T15:50:47.989Z,102149.17
2019-03-26T15:53:21.056Z,102145.56
2019-03-26T15:55:52.918Z,102149.68
2019-03-26T15:58:26.765Z,102140.91
2019-03-26T16:00:59.896Z,102148.45
2019-03-26T16:03:30.358Z,102153.62
2019-03-26T16:06:01.125Z,102159.67
2019-03-26T16:08:31.832Z,102147.47
2019-03-26T16:11:02.307Z,102153.92
2019-03-26T16:13:35.732Z,102150.72
2019-03-26T16:16:07.956Z,102145.65
2019-03-26T16:18:38.318Z,102152.78
2019-03-26T16:21:08.740Z,102154.01
2019-03-26T16:23:39.325Z,102149.52
2019-03-26T16:26:10.017Z,102150.22
2019-03-26T16:28:40.539Z,102151.09
2019-03-26T16:31:10.904Z,102152.86
2019-03-26T16:33:41.289Z,102146.77
2019-03-26T16:36:12.695Z,102148.80
2019-03-26T16:38:43.169Z,102143.06
2019-03-26T16:41:14.067Z,102157.00
2019-03-26T16:43:44.567Z,102152.30
2019-03-26T16:46:15.252Z,102149.63
2019-03-26T16:48:46.008Z,102152.48
2019-03-26T16:51:16.368Z,102151.61
2019-03-26T16:53:46.928Z,102157.16
2019-03-26T16:56:17.897Z,102155.52
2019-03-26T16:58:48.482Z,102158.41
2019-03-26T17:01:19.042Z,102168.63
2019-03-26T17:03:49.520Z,102162.89
2019-03-26T17:06:21.016Z,102162.67
2019-03-26T17:08:51.466Z,102165.19
2019-03-26T17:11:22.029Z,102162.95
2019-03-26T17:13:52.662Z,102161.17
2019-03-26T17:16:23.306Z,102151.64
2019-03-26T17:18:54.111Z,102159.02
2019-03-26T17:21:24.666Z,102155.25
2019-03-26T17:23:55.340Z,102162.09
2019-03-26T17:26:26.149Z,102164.19
2019-03-26T17:28:56.532Z,102158.38
2019-03-26T17:31:26.906Z,102162.14
2019-03-26T17:33:57.939Z,102156.95
2019-03-26T17:36:28.654Z,102140.80
2019-03-26T17:38:59.015Z,102132.02
2019-03-26T17:41:29.831Z,102156.91
2019-03-26T17:44:00.684Z,102158.06
2019-03-26T17:46:31.083Z,102160.70
2019-03-26T17:49:02.444Z,102158.53
2019-03-26T17:51:32.826Z,102162.30
2019-03-26T17:54:03.458Z,102166.25
2019-03-26T17:56:33.869Z,102163.55
2019-03-26T17:59:06.790Z,102168.91
2019-03-26T18:01:37.136Z,102170.00
2019-03-26T18:04:07.743Z,102169.63
2019-03-26T18:06:38.097Z,102175.67
2019-03-26T18:09:09.176Z,102177.84
2019-03-26T18:11:39.834Z,102177.15
2019-03-26T18:14:10.315Z,102181.06
2019-03-26T18:16:40.814Z,102180.53
2019-03-26T18:19:11.348Z,102179.40
2019-03-26T18:21:51.560Z,102180.47
2019-03-26T18:24:13.949Z,102188.33
2019-03-26T18:26:44.335Z,102193.88
2019-03-26T18:29:14.888Z,102198.31
2019-03-26T18:31:45.186Z,102203.52
2019-03-26T18:34:15.739Z,102200.83
2019-03-26T18:36:46.048Z,102211.20
2019-03-26T18:39:16.515Z,102214.05
2019-03-26T18:41:46.973Z,102216.48
2019-03-26T18:44:17.522Z,102221.06
2019-03-26T18:46:48.050Z,102221.70
2019-03-26T18:49:19.587Z,102222.02
2019-03-26T18:51:50.153Z,102220.91
2019-03-26T18:54:20.949Z,102221.77
2019-03-26T18:56:51.438Z,102229.78
2019-03-26T18:59:23.185Z,102231.95
2019-03-26T19:01:53.585Z,102232.14
2019-03-26T19:04:24.261Z,102228.58
2019-03-26T19:06:54.747Z,102241.52
2019-03-26T19:09:31.823Z,102251.05
2019-03-26T19:12:02.462Z,102251.93
2019-03-26T19:14:33.399Z,102253.19
2019-03-26T19:17:03.846Z,102258.20
2019-03-26T19:19:34.391Z,102253.91
2019-03-26T19:22:06.586Z,102254.59
2019-03-26T19:24:37.087Z,102246.38
2019-03-26T19:27:07.588Z,102246.73
2019-03-26T19:29:38.094Z,102236.86
2019-03-26T19:32:08.612Z,102248.04
2019-03-26T19:34:38.938Z,102249.25
2019-03-26T19:37:09.396Z,102255.28
2019-03-26T19:39:39.774Z,102263.38
2019-03-26T19:42:10.348Z,102256.39
2019-03-26T19:44:41.962Z,102258.36
2019-03-26T19:47:13.046Z,102264.63
2019-03-26T19:49:43.496Z,102262.50
2019-03-26T19:52:13.950Z,102266.34
2019-03-26T19:54:44.460Z,102268.28
2019-03-26T19:57:14.806Z,102271.13
2019-03-26T19:59:45.247Z,102271.42
2019-03-26T20:02:15.682Z,102271.90
2019-03-26T20:04:46.110Z,102280.67
2019-03-26T20:07:16.625Z,102281.50
2019-03-26T20:09:47.567Z,102284.15
2019-03-26T20:12:17.979Z,102283.91
2019-03-26T20:14:48.541Z,102286.08
2019-03-26T20:17:19.061Z,102286.84
2019-03-26T20:19:49.899Z,102290.11
2019-03-26T20:22:20.259Z,102293.76
2019-03-26T20:24:51.166Z,102265.45
2019-03-26T20:27:21.772Z,102296.00
2019-03-26T20:29:52.720Z,102298.79
2019-03-26T20:32:23.175Z,102302.09
2019-03-26T20:34:55.026Z,102301.31
2019-03-26T20:37:25.593Z,102306.59
2019-03-26T20:39:56.016Z,102302.58
2019-03-26T20:42:26.419Z,102307.53
2019-03-26T20:44:57.064Z,102313.01
2019-03-26T20:47:27.589Z,102316.76
2019-03-26T20:49:57.911Z,102318.34
2019-03-26T20:52:28.386Z,102312.75
2019-03-26T20:54:59.144Z,102322.75
2019-03-26T20:57:30.472Z,102324.81
2019-03-26T21:00:00.902Z,102324.95
2019-03-26T21:02:31.222Z,102325.47
2019-03-26T21:05:01.750Z,102334.29
2019-03-26T21:07:32.158Z,102335.67
2019-03-26T21:10:02.787Z,102343.66
2019-03-26T21:12:33.293Z,102345.37
2019-03-26T21:15:03.948Z,102344.84
2019-03-26T21:17:34.616Z,102342.61
2019-03-26T21:20:06.349Z,102347.41
2019-03-26T21:22:36.760Z,102345.23
2019-03-26T21:25:07.961Z,102342.53
2019-03-26T21:27:38.366Z,102343.45
2019-03-26T21:30:13.980Z,102348.66
2019-03-26T21:32:43.622Z,102342.53
2019-03-26T21:35:15.363Z,102343.72
2019-03-26T21:37:45.810Z,102344.80
2019-03-26T21:40:18.770Z,102341.55
2019-03-26T21:42:49.125Z,102343.27
2019-03-26T21:45:26.099Z,102338.67
2019-03-26T21:47:58.422Z,102337.34
2019-03-26T21:50:28.727Z,102245.22
2019-03-26T21:52:59.025Z,102336.44
2019-03-26T21:55:29.604Z,102335.42
2019-03-26T21:58:00.437Z,102333.47
2019-03-26T22:00:30.820Z,102337.01
2019-03-26T22:03:01.791Z,102354.30
2019-03-26T22:05:32.261Z,102350.31
2019-03-26T22:08:02.791Z,102348.19
2019-03-26T22:10:34.097Z,102344.44
2019-03-26T22:13:07.578Z,102356.22
2019-03-26T22:15:38.469Z,102353.98
2019-03-26T22:18:09.187Z,102358.23
2019-03-26T22:20:39.575Z,102361.41
2019-03-26T22:23:09.956Z,102366.41
2019-03-26T22:25:40.846Z,102365.16
2019-03-26T22:28:11.603Z,102364.95
2019-03-26T22:30:42.025Z,102366.41
2019-03-26T22:33:12.353Z,102372.45
2019-03-26T22:35:43.173Z,102375.41
2019-03-26T22:38:13.817Z,102379.74
2019-03-26T22:40:44.850Z,102372.92
2019-03-26T22:43:15.436Z,102379.88
2019-03-26T22:45:50.983Z,102380.55
2019-03-26T22:48:21.511Z,102388.88
2019-03-26T22:50:52.347Z,102385.05
2019-03-26T22:53:24.096Z,102385.05
2019-03-26T22:55:57.654Z,102378.56
2019-03-26T22:58:30.180Z,102383.23
2019-03-26T23:01:03.384Z,102380.19
2019-03-26T23:03:33.647Z,102386.22
2019-03-26T23:06:05.738Z,102384.73
2019-03-26T23:08:37.295Z,102385.31
2019-03-26T23:11:08.011Z,102385.64
2019-03-26T23:13:38.515Z,102392.59
2019-03-26T23:16:11.313Z,102347.50
2019-03-26T23:18:41.838Z,102395.80
2019-03-26T23:21:12.324Z,102395.53
2019-03-26T23:23:42.739Z,102391.12
2019-03-26T23:26:13.197Z,102391.33
2019-03-26T23:28:43.587Z,102391.12
2019-03-26T23:31:14.019Z,102390.00
2019-03-26T23:33:44.565Z,102389.22
2019-03-26T23:36:14.914Z,102392.05
2019-03-26T23:38:45.403Z,102363.89
2019-03-26T23:41:16.098Z,102392.47
2019-03-26T23:43:46.627Z,102396.55
2019-03-26T23:46:17.002Z,102395.09
2019-03-26T23:48:47.656Z,102395.35
2019-03-26T23:51:17.987Z,102396.12
2019-03-26T23:53:48.357Z,102396.95
2019-03-26T23:56:19.766Z,102387.08
2019-03-26T23:58:50.081Z,102408.66
